sensor_id;sensor_type;location;lat;lon;timestamp;P1;durP1;ratioP1;P2;durP2;ratioP2
1178;SDS011;578;48.408;10.004;2022-08-01T00:00:36;4.40;;;3.30;;
1178;SDS011;578;48.408;10.004;2022-08-01T00:03:03;5.67;;;3.20;;
1178;SDS011;578;48.408;10.004;2022-08-01T00:05:32;3.40;;;3.10;;
1178;SDS011;578;48.408;10.004;2022-08-01T00:07:59;3.80;;;3.50;;
1178;SDS011;578;48.408;10.004;2022-08-01T00:10:25;4.27;;;3.33;;
1178;SDS011;578;48.408;10.004;2022-08-01T00:12:52;3.90;;;3.50;;
1178;SDS011;578;48.408;10.004;2022-08-01T00:15:19;4.60;;;3.30;;
1178;SDS011;578;48.408;10.004;2022-08-01T00:17:46;4.23;;;3.30;;
1178;SDS011;578;48.408;10.004;2022-08-01T00:20:13;3.07;;;2.87;;
1178;SDS011;578;48.408;10.004;2022-08-01T00:22:41;3.50;;;3.20;;
1178;SDS011;578;48.408;10.004;2022-08-01T00:25:08;3.90;;;3.60;;
1178;SDS011;578;48.408;10.004;2022-08-01T00:27:35;3.63;;;3.33;;
1178;SDS011;578;48.408;10.004;2022-08-01T00:30:02;3.50;;;3.20;;
1178;SDS011;578;48.408;10.004;2022-08-01T00:32:30;4.00;;;3.70;;
1178;SDS011;578;48.408;10.004;2022-08-01T00:34:56;5.97;;;3.90;;
1178;SDS011;578;48.408;10.004;2022-08-01T00:37:23;3.63;;;3.33;;
1178;SDS011;578;48.408;10.004;2022-08-01T00:39:51;3.73;;;3.20;;
1178;SDS011;578;48.408;10.004;2022-08-01T00:42:18;3.47;;;3.17;;
1178;SDS011;578;48.408;10.004;2022-08-01T00:44:44;3.67;;;3.30;;
1178;SDS011;578;48.408;10.004;2022-08-01T00:47:11;5.17;;;3.27;;
1178;SDS011;578;48.408;10.004;2022-08-01T00:49:38;3.30;;;3.00;;
1178;SDS011;578;48.408;10.004;2022-08-01T00:52:05;5.60;;;3.07;;
1178;SDS011;578;48.408;10.004;2022-08-01T00:54:32;3.10;;;2.80;;
1178;SDS011;578;48.408;10.004;2022-08-01T00:57:00;3.10;;;2.80;;
1178;SDS011;578;48.408;10.004;2022-08-01T00:59:28;3.10;;;2.80;;
1178;SDS011;578;48.408;10.004;2022-08-01T01:01:54;2.97;;;2.73;;
1178;SDS011;578;48.408;10.004;2022-08-01T01:04:21;2.80;;;2.60;;
1178;SDS011;578;48.408;10.004;2022-08-01T01:06:51;4.00;;;2.80;;
1178;SDS011;578;48.408;10.004;2022-08-01T01:09:26;4.03;;;2.87;;
1178;SDS011;578;48.408;10.004;2022-08-01T01:12:03;5.83;;;2.70;;
1178;SDS011;578;48.408;10.004;2022-08-01T01:14:38;2.60;;;2.40;;
1178;SDS011;578;48.408;10.004;2022-08-01T01:17:11;2.83;;;2.53;;
1178;SDS011;578;48.408;10.004;2022-08-01T01:19:41;3.00;;;2.70;;
1178;SDS011;578;48.408;10.004;2022-08-01T01:22:18;3.63;;;2.90;;
1178;SDS011;578;48.408;10.004;2022-08-01T01:24:56;5.30;;;3.03;;
1178;SDS011;578;48.408;10.004;2022-08-01T01:27:33;4.23;;;3.10;;
1178;SDS011;578;48.408;10.004;2022-08-01T01:30:10;5.53;;;3.00;;
1178;SDS011;578;48.408;10.004;2022-08-01T01:32:38;3.03;;;2.40;;
1178;SDS011;578;48.408;10.004;2022-08-01T01:35:09;3.20;;;2.90;;
1178;SDS011;578;48.408;10.004;2022-08-01T01:37:48;2.53;;;2.33;;
1178;SDS011;578;48.408;10.004;2022-08-01T01:40:19;3.47;;;2.80;;
1178;SDS011;578;48.408;10.004;2022-08-01T01:42:47;3.20;;;2.90;;
1178;SDS011;578;48.408;10.004;2022-08-01T01:45:16;3.20;;;2.70;;
1178;SDS011;578;48.408;10.004;2022-08-01T01:47:44;3.00;;;2.77;;
1178;SDS011;578;48.408;10.004;2022-08-01T01:50:12;3.60;;;2.80;;
1178;SDS011;578;48.408;10.004;2022-08-01T01:52:39;3.00;;;2.80;;
1178;SDS011;578;48.408;10.004;2022-08-01T01:55:08;3.43;;;3.10;;
1178;SDS011;578;48.408;10.004;2022-08-01T01:57:36;5.30;;;3.03;;
1178;SDS011;578;48.408;10.004;2022-08-01T02:00:06;3.67;;;2.80;;
1178;SDS011;578;48.408;10.004;2022-08-01T02:02:35;3.23;;;2.93;;
1178;SDS011;578;48.408;10.004;2022-08-01T02:05:02;3.00;;;2.70;;
1178;SDS011;578;48.408;10.004;2022-08-01T02:07:31;3.13;;;2.83;;
1178;SDS011;578;48.408;10.004;2022-08-01T02:10:00;4.10;;;3.40;;
1178;SDS011;578;48.408;10.004;2022-08-01T02:12:29;3.53;;;3.23;;
1178;SDS011;578;48.408;10.004;2022-08-01T02:14:57;2.83;;;2.63;;
1178;SDS011;578;48.408;10.004;2022-08-01T02:17:25;5.03;;;3.47;;
1178;SDS011;578;48.408;10.004;2022-08-01T02:19:54;3.87;;;3.17;;
1178;SDS011;578;48.408;10.004;2022-08-01T02:22:24;3.73;;;3.40;;
1178;SDS011;578;48.408;10.004;2022-08-01T02:24:55;4.20;;;3.43;;
1178;SDS011;578;48.408;10.004;2022-08-01T02:27:28;3.33;;;3.03;;
1178;SDS011;578;48.408;10.004;2022-08-01T02:29:59;3.73;;;3.40;;
1178;SDS011;578;48.408;10.004;2022-08-01T02:32:30;3.73;;;3.43;;
1178;SDS011;578;48.408;10.004;2022-08-01T02:35:03;3.70;;;3.40;;
1178;SDS011;578;48.408;10.004;2022-08-01T02:37:33;4.00;;;3.70;;
1178;SDS011;578;48.408;10.004;2022-08-01T02:40:02;3.60;;;3.30;;
1178;SDS011;578;48.408;10.004;2022-08-01T02:42:32;4.63;;;3.70;;
1178;SDS011;578;48.408;10.004;2022-08-01T02:45:03;4.43;;;3.47;;
1178;SDS011;578;48.408;10.004;2022-08-01T02:47:33;4.30;;;3.90;;
1178;SDS011;578;48.408;10.004;2022-08-01T02:50:03;4.50;;;4.10;;
1178;SDS011;578;48.408;10.004;2022-08-01T02:52:33;5.20;;;3.90;;
1178;SDS011;578;48.408;10.004;2022-08-01T02:55:00;6.87;;;3.70;;
1178;SDS011;578;48.408;10.004;2022-08-01T02:57:28;4.80;;;3.47;;
1178;SDS011;578;48.408;10.004;2022-08-01T02:59:57;4.33;;;3.80;;
1178;SDS011;578;48.408;10.004;2022-08-01T03:02:25;4.30;;;3.90;;
1178;SDS011;578;48.408;10.004;2022-08-01T03:07:20;4.30;;;3.90;;
1178;SDS011;578;48.408;10.004;2022-08-01T03:09:49;4.60;;;4.20;;
1178;SDS011;578;48.408;10.004;2022-08-01T03:12:18;5.17;;;3.97;;
1178;SDS011;578;48.408;10.004;2022-08-01T03:14:49;4.43;;;4.03;;
1178;SDS011;578;48.408;10.004;2022-08-01T03:17:20;4.40;;;4.00;;
1178;SDS011;578;48.408;10.004;2022-08-01T03:19:50;4.10;;;3.70;;
1178;SDS011;578;48.408;10.004;2022-08-01T05:12:26;6.30;;;5.70;;
1178;SDS011;578;48.408;10.004;2022-08-01T05:14:52;6.30;;;5.70;;
1178;SDS011;578;48.408;10.004;2022-08-01T05:17:19;6.50;;;5.90;;
1178;SDS011;578;48.408;10.004;2022-08-01T05:19:46;5.93;;;5.33;;
1178;SDS011;578;48.408;10.004;2022-08-01T05:22:12;5.57;;;5.13;;
1178;SDS011;578;48.408;10.004;2022-08-01T05:24:39;5.73;;;5.23;;
1178;SDS011;578;48.408;10.004;2022-08-01T05:27:07;6.00;;;5.00;;
1178;SDS011;578;48.408;10.004;2022-08-01T05:29:36;7.77;;;5.50;;
1178;SDS011;578;48.408;10.004;2022-08-01T05:32:02;5.57;;;5.07;;
1178;SDS011;578;48.408;10.004;2022-08-01T05:34:29;5.60;;;5.03;;
1178;SDS011;578;48.408;10.004;2022-08-01T05:36:56;7.40;;;5.27;;
1178;SDS011;578;48.408;10.004;2022-08-01T05:39:23;4.43;;;4.00;;
1178;SDS011;578;48.408;10.004;2022-08-01T05:41:49;4.70;;;4.30;;
1178;SDS011;578;48.408;10.004;2022-08-01T05:44:16;5.73;;;4.47;;
1178;SDS011;578;48.408;10.004;2022-08-01T05:46:44;5.23;;;4.70;;
1178;SDS011;578;48.408;10.004;2022-08-01T05:49:11;8.70;;;4.20;;
1178;SDS011;578;48.408;10.004;2022-08-01T05:51:37;4.43;;;3.60;;
1178;SDS011;578;48.408;10.004;2022-08-01T05:54:04;6.77;;;3.97;;
1178;SDS011;578;48.408;10.004;2022-08-01T05:56:31;5.63;;;4.20;;
1178;SDS011;578;48.408;10.004;2022-08-01T05:58:58;4.63;;;4.20;;
1178;SDS011;578;48.408;10.004;2022-08-01T06:01:24;5.07;;;3.63;;
1178;SDS011;578;48.408;10.004;2022-08-01T06:03:52;4.37;;;3.97;;
1178;SDS011;578;48.408;10.004;2022-08-01T06:06:20;4.17;;;3.77;;
1178;SDS011;578;48.408;10.004;2022-08-01T06:08:46;4.37;;;3.97;;
1178;SDS011;578;48.408;10.004;2022-08-01T06:11:13;4.33;;;3.17;;
1178;SDS011;578;48.408;10.004;2022-08-01T06:13:40;4.87;;;3.43;;
1178;SDS011;578;48.408;10.004;2022-08-01T06:16:07;4.70;;;3.57;;
1178;SDS011;578;48.408;10.004;2022-08-01T06:18:34;3.53;;;3.20;;
1178;SDS011;578;48.408;10.004;2022-08-01T06:21:02;3.80;;;3.30;;
1178;SDS011;578;48.408;10.004;2022-08-01T06:23:28;4.57;;;3.57;;
1178;SDS011;578;48.408;10.004;2022-08-01T06:25:55;3.90;;;3.53;;
1178;SDS011;578;48.408;10.004;2022-08-01T06:28:23;4.27;;;3.87;;
1178;SDS011;578;48.408;10.004;2022-08-01T06:30:49;6.80;;;3.00;;
1178;SDS011;578;48.408;10.004;2022-08-01T06:33:16;3.90;;;3.60;;
1178;SDS011;578;48.408;10.004;2022-08-01T06:35:43;3.57;;;3.27;;
1178;SDS011;578;48.408;10.004;2022-08-01T06:38:11;6.73;;;3.53;;
1178;SDS011;578;48.408;10.004;2022-08-01T06:40:38;3.90;;;3.50;;
1178;SDS011;578;48.408;10.004;2022-08-01T06:43:04;4.70;;;3.83;;
1178;SDS011;578;48.408;10.004;2022-08-01T06:45:31;7.67;;;3.40;;
1178;SDS011;578;48.408;10.004;2022-08-01T06:47:58;4.43;;;3.63;;
1178;SDS011;578;48.408;10.004;2022-08-01T06:50:24;4.40;;;4.00;;
1178;SDS011;578;48.408;10.004;2022-08-01T06:52:51;3.80;;;3.50;;
1178;SDS011;578;48.408;10.004;2022-08-01T06:55:19;8.20;;;3.70;;
1178;SDS011;578;48.408;10.004;2022-08-01T06:57:46;4.77;;;4.37;;
1178;SDS011;578;48.408;10.004;2022-08-01T07:00:14;4.60;;;4.20;;
1178;SDS011;578;48.408;10.004;2022-08-01T07:02:43;4.20;;;3.80;;
1178;SDS011;578;48.408;10.004;2022-08-01T07:05:10;4.73;;;4.30;;
1178;SDS011;578;48.408;10.004;2022-08-01T07:07:37;6.60;;;3.83;;
1178;SDS011;578;48.408;10.004;2022-08-01T07:10:04;4.30;;;4.00;;
1178;SDS011;578;48.408;10.004;2022-08-01T07:12:34;4.63;;;4.23;;
1178;SDS011;578;48.408;10.004;2022-08-01T07:15:03;4.50;;;4.10;;
1178;SDS011;578;48.408;10.004;2022-08-01T07:17:30;4.90;;;3.90;;
1178;SDS011;578;48.408;10.004;2022-08-01T07:19:57;3.87;;;3.57;;
1178;SDS011;578;48.408;10.004;2022-08-01T07:22:24;5.47;;;3.70;;
1178;SDS011;578;48.408;10.004;2022-08-01T07:24:50;3.80;;;3.50;;
1178;SDS011;578;48.408;10.004;2022-08-01T07:27:17;3.87;;;3.33;;
1178;SDS011;578;48.408;10.004;2022-08-01T07:29:45;6.23;;;4.20;;
1178;SDS011;578;48.408;10.004;2022-08-01T07:32:12;4.00;;;3.53;;
1178;SDS011;578;48.408;10.004;2022-08-01T07:34:38;4.17;;;3.87;;
1178;SDS011;578;48.408;10.004;2022-08-01T07:37:05;3.60;;;3.30;;
1178;SDS011;578;48.408;10.004;2022-08-01T07:39:32;4.27;;;3.57;;
1178;SDS011;578;48.408;10.004;2022-08-01T07:41:58;3.97;;;3.40;;
1178;SDS011;578;48.408;10.004;2022-08-01T07:44:25;3.20;;;2.90;;
1178;SDS011;578;48.408;10.004;2022-08-01T07:46:53;4.53;;;3.77;;
1178;SDS011;578;48.408;10.004;2022-08-01T07:49:20;5.57;;;4.23;;
1178;SDS011;578;48.408;10.004;2022-08-01T07:51:47;4.03;;;3.63;;
1178;SDS011;578;48.408;10.004;2022-08-01T07:54:13;3.93;;;3.63;;
1178;SDS011;578;48.408;10.004;2022-08-01T07:56:40;3.93;;;3.30;;
1178;SDS011;578;48.408;10.004;2022-08-01T07:59:07;4.00;;;3.70;;
1178;SDS011;578;48.408;10.004;2022-08-01T08:01:33;3.93;;;3.60;;
1178;SDS011;578;48.408;10.004;2022-08-01T08:04:01;3.70;;;3.30;;
1178;SDS011;578;48.408;10.004;2022-08-01T08:06:28;3.53;;;3.23;;
1178;SDS011;578;48.408;10.004;2022-08-01T08:08:55;4.47;;;3.50;;
1178;SDS011;578;48.408;10.004;2022-08-01T08:11:21;3.80;;;3.33;;
1178;SDS011;578;48.408;10.004;2022-08-01T08:13:48;3.50;;;3.20;;
1178;SDS011;578;48.408;10.004;2022-08-01T08:16:15;3.43;;;3.13;;
1178;SDS011;578;48.408;10.004;2022-08-01T08:18:42;3.57;;;3.27;;
1178;SDS011;578;48.408;10.004;2022-08-01T08:21:10;3.70;;;3.40;;
1178;SDS011;578;48.408;10.004;2022-08-01T08:23:36;6.00;;;3.30;;
1178;SDS011;578;48.408;10.004;2022-08-01T08:26:21;7.90;;;3.50;;
1178;SDS011;578;48.408;10.004;2022-08-01T08:28:48;4.27;;;3.67;;
1178;SDS011;578;48.408;10.004;2022-08-01T08:31:15;3.13;;;2.83;;
1178;SDS011;578;48.408;10.004;2022-08-01T08:33:42;4.20;;;3.70;;
1178;SDS011;578;48.408;10.004;2022-08-01T08:36:10;2.70;;;2.50;;
1178;SDS011;578;48.408;10.004;2022-08-01T08:38:37;3.90;;;3.50;;
1178;SDS011;578;48.408;10.004;2022-08-01T08:41:03;3.63;;;3.33;;
1178;SDS011;578;48.408;10.004;2022-08-01T08:43:31;3.40;;;3.20;;
1178;SDS011;578;48.408;10.004;2022-08-01T08:45:57;3.97;;;3.67;;
1178;SDS011;578;48.408;10.004;2022-08-01T08:48:24;3.23;;;3.03;;
1178;SDS011;578;48.408;10.004;2022-08-01T08:50:51;4.00;;;3.60;;
1178;SDS011;578;48.408;10.004;2022-08-01T08:53:19;3.80;;;3.43;;
1178;SDS011;578;48.408;10.004;2022-08-01T08:55:47;3.20;;;3.00;;
1178;SDS011;578;48.408;10.004;2022-08-01T08:58:14;3.10;;;2.90;;
1178;SDS011;578;48.408;10.004;2022-08-01T09:00:42;3.27;;;2.97;;
1178;SDS011;578;48.408;10.004;2022-08-01T09:03:09;3.40;;;3.10;;
1178;SDS011;578;48.408;10.004;2022-08-01T09:05:36;3.70;;;3.30;;
1178;SDS011;578;48.408;10.004;2022-08-01T09:08:05;3.87;;;3.10;;
1178;SDS011;578;48.408;10.004;2022-08-01T09:10:34;2.80;;;2.60;;
1178;SDS011;578;48.408;10.004;2022-08-01T09:13:01;3.97;;;3.47;;
1178;SDS011;578;48.408;10.004;2022-08-01T09:15:37;2.60;;;2.40;;
1178;SDS011;578;48.408;10.004;2022-08-01T09:18:04;3.23;;;2.43;;
1178;SDS011;578;48.408;10.004;2022-08-01T09:20:31;2.53;;;2.33;;
1178;SDS011;578;48.408;10.004;2022-08-01T09:22:59;2.63;;;2.00;;
1178;SDS011;578;48.408;10.004;2022-08-01T09:25:26;4.57;;;2.40;;
1178;SDS011;578;48.408;10.004;2022-08-01T09:28:03;2.77;;;2.57;;
1178;SDS011;578;48.408;10.004;2022-08-01T09:30:33;2.50;;;2.20;;
1178;SDS011;578;48.408;10.004;2022-08-01T09:33:03;2.60;;;2.40;;
1178;SDS011;578;48.408;10.004;2022-08-01T09:35:31;2.33;;;2.13;;
1178;SDS011;578;48.408;10.004;2022-08-01T09:38:15;2.43;;;2.20;;
1178;SDS011;578;48.408;10.004;2022-08-01T09:40:44;2.57;;;2.37;;
1178;SDS011;578;48.408;10.004;2022-08-01T09:43:16;3.57;;;2.23;;
1178;SDS011;578;48.408;10.004;2022-08-01T09:45:42;3.10;;;2.20;;
1178;SDS011;578;48.408;10.004;2022-08-01T09:48:09;2.50;;;2.30;;
1178;SDS011;578;48.408;10.004;2022-08-01T09:50:41;2.27;;;2.07;;
1178;SDS011;578;48.408;10.004;2022-08-01T09:53:08;2.47;;;2.20;;
1178;SDS011;578;48.408;10.004;2022-08-01T09:55:36;4.07;;;2.10;;
1178;SDS011;578;48.408;10.004;2022-08-01T09:58:03;2.43;;;2.10;;
1178;SDS011;578;48.408;10.004;2022-08-01T10:00:31;2.60;;;2.40;;
1178;SDS011;578;48.408;10.004;2022-08-01T10:02:59;2.37;;;2.13;;
1178;SDS011;578;48.408;10.004;2022-08-01T10:05:43;2.70;;;2.27;;
1178;SDS011;578;48.408;10.004;2022-08-01T10:08:10;2.57;;;2.20;;
1178;SDS011;578;48.408;10.004;2022-08-01T10:10:37;2.33;;;2.13;;
1178;SDS011;578;48.408;10.004;2022-08-01T10:13:04;2.50;;;2.30;;
1178;SDS011;578;48.408;10.004;2022-08-01T10:15:33;2.53;;;2.00;;
1178;SDS011;578;48.408;10.004;2022-08-01T10:18:01;2.73;;;2.53;;
1178;SDS011;578;48.408;10.004;2022-08-01T10:20:31;3.23;;;2.63;;
1178;SDS011;578;48.408;10.004;2022-08-01T10:22:59;3.90;;;2.87;;
1178;SDS011;578;48.408;10.004;2022-08-01T10:25:29;2.90;;;2.60;;
1178;SDS011;578;48.408;10.004;2022-08-01T10:28:00;4.10;;;2.47;;
1178;SDS011;578;48.408;10.004;2022-08-01T10:30:33;2.47;;;2.27;;
1178;SDS011;578;48.408;10.004;2022-08-01T10:33:00;4.80;;;2.50;;
1178;SDS011;578;48.408;10.004;2022-08-01T10:35:27;2.93;;;2.20;;
1178;SDS011;578;48.408;10.004;2022-08-01T10:37:54;3.07;;;2.77;;
1178;SDS011;578;48.408;10.004;2022-08-01T10:40:23;3.07;;;2.77;;
1178;SDS011;578;48.408;10.004;2022-08-01T10:42:50;3.20;;;2.70;;
1178;SDS011;578;48.408;10.004;2022-08-01T10:45:18;2.63;;;2.43;;
1178;SDS011;578;48.408;10.004;2022-08-01T10:47:48;3.60;;;3.20;;
1178;SDS011;578;48.408;10.004;2022-08-01T10:50:21;3.20;;;3.00;;
1178;SDS011;578;48.408;10.004;2022-08-01T10:53:03;2.87;;;2.40;;
1178;SDS011;578;48.408;10.004;2022-08-01T10:55:44;2.93;;;2.63;;
1178;SDS011;578;48.408;10.004;2022-08-01T10:58:12;2.90;;;2.70;;
1178;SDS011;578;48.408;10.004;2022-08-01T11:00:39;2.53;;;2.33;;
1178;SDS011;578;48.408;10.004;2022-08-01T11:03:07;3.23;;;2.60;;
1178;SDS011;578;48.408;10.004;2022-08-01T11:05:34;2.73;;;2.50;;
1178;SDS011;578;48.408;10.004;2022-08-01T11:08:02;3.47;;;2.77;;
1178;SDS011;578;48.408;10.004;2022-08-01T11:10:35;3.03;;;2.73;;
1178;SDS011;578;48.408;10.004;2022-08-01T11:13:05;2.73;;;2.50;;
1178;SDS011;578;48.408;10.004;2022-08-01T11:15:33;3.20;;;2.87;;
1178;SDS011;578;48.408;10.004;2022-08-01T11:18:00;3.57;;;2.40;;
1178;SDS011;578;48.408;10.004;2022-08-01T11:20:30;2.93;;;2.73;;
1178;SDS011;578;48.408;10.004;2022-08-01T11:28:40;3.80;;;2.60;;
1178;SDS011;578;48.408;10.004;2022-08-01T11:33:54;3.93;;;2.70;;
1178;SDS011;578;48.408;10.004;2022-08-01T11:36:22;3.43;;;2.57;;
1178;SDS011;578;48.408;10.004;2022-08-01T11:39:10;2.90;;;2.60;;
1178;SDS011;578;48.408;10.004;2022-08-01T11:41:40;2.43;;;2.23;;
1178;SDS011;578;48.408;10.004;2022-08-01T11:44:08;2.70;;;2.30;;
1178;SDS011;578;48.408;10.004;2022-08-01T11:52:23;3.83;;;2.90;;
1178;SDS011;578;48.408;10.004;2022-08-01T11:54:52;2.90;;;2.60;;
1178;SDS011;578;48.408;10.004;2022-08-01T11:57:20;2.70;;;2.50;;
1178;SDS011;578;48.408;10.004;2022-08-01T11:59:48;3.57;;;2.77;;
1178;SDS011;578;48.408;10.004;2022-08-01T12:02:17;3.43;;;3.13;;
1178;SDS011;578;48.408;10.004;2022-08-01T12:04:45;3.00;;;2.70;;
1178;SDS011;578;48.408;10.004;2022-08-01T12:07:17;3.30;;;3.00;;
1178;SDS011;578;48.408;10.004;2022-08-01T12:09:46;4.27;;;3.20;;
1178;SDS011;578;48.408;10.004;2022-08-01T12:12:16;5.33;;;3.20;;
1178;SDS011;578;48.408;10.004;2022-08-01T12:14:44;4.37;;;3.00;;
1178;SDS011;578;48.408;10.004;2022-08-01T12:17:12;4.00;;;3.60;;
1178;SDS011;578;48.408;10.004;2022-08-01T12:19:39;3.97;;;3.10;;
1178;SDS011;578;48.408;10.004;2022-08-01T12:22:10;2.90;;;2.70;;
1178;SDS011;578;48.408;10.004;2022-08-01T12:24:39;3.37;;;3.07;;
1178;SDS011;578;48.408;10.004;2022-08-01T12:27:08;5.73;;;3.00;;
1178;SDS011;578;48.408;10.004;2022-08-01T12:29:37;5.97;;;3.30;;
1178;SDS011;578;48.408;10.004;2022-08-01T12:32:20;4.80;;;2.90;;
1178;SDS011;578;48.408;10.004;2022-08-01T12:34:48;7.23;;;3.30;;
1178;SDS011;578;48.408;10.004;2022-08-01T12:37:14;6.00;;;3.00;;
1178;SDS011;578;48.408;10.004;2022-08-01T12:39:42;3.30;;;3.00;;
1178;SDS011;578;48.408;10.004;2022-08-01T12:42:12;3.73;;;3.33;;
1178;SDS011;578;48.408;10.004;2022-08-01T12:44:39;3.60;;;3.17;;
1178;SDS011;578;48.408;10.004;2022-08-01T12:47:08;4.30;;;2.90;;
1178;SDS011;578;48.408;10.004;2022-08-01T12:49:37;3.93;;;3.47;;
1178;SDS011;578;48.408;10.004;2022-08-01T12:52:06;3.50;;;2.90;;
1178;SDS011;578;48.408;10.004;2022-08-01T12:57:29;3.87;;;2.83;;
1178;SDS011;578;48.408;10.004;2022-08-01T13:00:09;3.33;;;3.03;;
1178;SDS011;578;48.408;10.004;2022-08-01T13:02:39;3.27;;;2.97;;
1178;SDS011;578;48.408;10.004;2022-08-01T13:05:06;3.40;;;3.10;;
1178;SDS011;578;48.408;10.004;2022-08-01T13:07:36;6.90;;;3.10;;
1178;SDS011;578;48.408;10.004;2022-08-01T13:10:07;5.60;;;3.30;;
1178;SDS011;578;48.408;10.004;2022-08-01T13:12:37;4.20;;;2.80;;
1178;SDS011;578;48.408;10.004;2022-08-01T13:15:23;3.37;;;3.07;;
1178;SDS011;578;48.408;10.004;2022-08-01T13:17:52;4.20;;;3.20;;
1178;SDS011;578;48.408;10.004;2022-08-01T13:20:30;4.37;;;3.27;;
1178;SDS011;578;48.408;10.004;2022-08-01T13:23:09;3.60;;;3.30;;
1178;SDS011;578;48.408;10.004;2022-08-01T13:25:46;3.67;;;3.10;;
1178;SDS011;578;48.408;10.004;2022-08-01T13:28:19;4.53;;;4.13;;
1178;SDS011;578;48.408;10.004;2022-08-01T13:33:41;3.70;;;3.30;;
1178;SDS011;578;48.408;10.004;2022-08-01T13:36:09;4.20;;;3.30;;
1178;SDS011;578;48.408;10.004;2022-08-01T13:38:37;4.10;;;2.93;;
1178;SDS011;578;48.408;10.004;2022-08-01T13:41:21;3.07;;;2.77;;
1178;SDS011;578;48.408;10.004;2022-08-01T13:43:49;3.70;;;3.33;;
1178;SDS011;578;48.408;10.004;2022-08-01T13:46:16;4.20;;;3.27;;
1178;SDS011;578;48.408;10.004;2022-08-01T13:48:43;3.77;;;3.30;;
1178;SDS011;578;48.408;10.004;2022-08-01T13:51:10;3.10;;;2.80;;
1178;SDS011;578;48.408;10.004;2022-08-01T13:53:36;3.87;;;3.03;;
1178;SDS011;578;48.408;10.004;2022-08-01T13:56:03;3.93;;;3.40;;
1178;SDS011;578;48.408;10.004;2022-08-01T13:58:30;4.80;;;3.40;;
1178;SDS011;578;48.408;10.004;2022-08-01T14:00:58;3.30;;;3.00;;
1178;SDS011;578;48.408;10.004;2022-08-01T14:03:25;4.03;;;3.40;;
1178;SDS011;578;48.408;10.004;2022-08-01T14:05:52;7.20;;;2.90;;
1178;SDS011;578;48.408;10.004;2022-08-01T14:08:18;4.87;;;3.20;;
1178;SDS011;578;48.408;10.004;2022-08-01T14:10:45;3.83;;;3.43;;
1178;SDS011;578;48.408;10.004;2022-08-01T14:13:12;4.20;;;3.50;;
1178;SDS011;578;48.408;10.004;2022-08-01T14:15:39;4.03;;;3.40;;
1178;SDS011;578;48.408;10.004;2022-08-01T14:18:07;4.43;;;3.57;;
1178;SDS011;578;48.408;10.004;2022-08-01T14:20:34;3.80;;;3.40;;
1178;SDS011;578;48.408;10.004;2022-08-01T14:23:02;4.40;;;3.07;;
1178;SDS011;578;48.408;10.004;2022-08-01T14:25:29;3.63;;;2.43;;
1178;SDS011;578;48.408;10.004;2022-08-01T14:27:56;3.03;;;2.37;;
1178;SDS011;578;48.408;10.004;2022-08-01T14:30:22;3.70;;;2.70;;
1178;SDS011;578;48.408;10.004;2022-08-01T14:32:49;4.50;;;3.10;;
1178;SDS011;578;48.408;10.004;2022-08-01T14:35:17;3.47;;;3.17;;
1178;SDS011;578;48.408;10.004;2022-08-01T14:37:44;4.20;;;3.07;;
1178;SDS011;578;48.408;10.004;2022-08-01T14:40:10;5.30;;;3.40;;
1178;SDS011;578;48.408;10.004;2022-08-01T14:42:37;3.33;;;3.03;;
1178;SDS011;578;48.408;10.004;2022-08-01T14:45:06;3.27;;;2.97;;
1178;SDS011;578;48.408;10.004;2022-08-01T14:47:34;3.70;;;3.27;;
1178;SDS011;578;48.408;10.004;2022-08-01T14:50:02;4.03;;;3.70;;
1178;SDS011;578;48.408;10.004;2022-08-01T14:52:32;3.30;;;2.97;;
1178;SDS011;578;48.408;10.004;2022-08-01T14:54:59;4.30;;;3.03;;
1178;SDS011;578;48.408;10.004;2022-08-01T14:57:25;5.07;;;3.00;;
1178;SDS011;578;48.408;10.004;2022-08-01T14:59:52;3.80;;;3.50;;
1178;SDS011;578;48.408;10.004;2022-08-01T15:02:19;5.27;;;3.63;;
1178;SDS011;578;48.408;10.004;2022-08-01T15:04:47;3.83;;;3.43;;
1178;SDS011;578;48.408;10.004;2022-08-01T15:07:14;3.87;;;3.30;;
1178;SDS011;578;48.408;10.004;2022-08-01T15:09:43;3.20;;;2.90;;
1178;SDS011;578;48.408;10.004;2022-08-01T15:12:11;4.17;;;3.10;;
1178;SDS011;578;48.408;10.004;2022-08-01T15:14:38;5.93;;;3.50;;
1178;SDS011;578;48.408;10.004;2022-08-01T15:17:14;3.70;;;3.33;;
1178;SDS011;578;48.408;10.004;2022-08-01T15:19:40;4.10;;;3.70;;
1178;SDS011;578;48.408;10.004;2022-08-01T15:22:07;3.83;;;3.20;;
1178;SDS011;578;48.408;10.004;2022-08-01T15:24:34;4.40;;;3.20;;
1178;SDS011;578;48.408;10.004;2022-08-01T15:27:02;3.70;;;3.37;;
1178;SDS011;578;48.408;10.004;2022-08-01T15:29:29;3.23;;;2.93;;
1178;SDS011;578;48.408;10.004;2022-08-01T15:31:56;3.17;;;2.80;;
1178;SDS011;578;48.408;10.004;2022-08-01T15:34:23;3.57;;;3.27;;
1178;SDS011;578;48.408;10.004;2022-08-01T15:36:50;7.03;;;3.60;;
1178;SDS011;578;48.408;10.004;2022-08-01T15:39:17;3.50;;;3.10;;
1178;SDS011;578;48.408;10.004;2022-08-01T15:41:43;3.47;;;3.17;;
1178;SDS011;578;48.408;10.004;2022-08-01T15:44:13;4.30;;;3.03;;
1178;SDS011;578;48.408;10.004;2022-08-01T15:46:39;3.20;;;2.90;;
1178;SDS011;578;48.408;10.004;2022-08-01T15:49:06;4.40;;;3.43;;
1178;SDS011;578;48.408;10.004;2022-08-01T15:51:33;3.50;;;3.20;;
1178;SDS011;578;48.408;10.004;2022-08-01T15:54:00;9.87;;;3.47;;
1178;SDS011;578;48.408;10.004;2022-08-01T15:56:27;3.50;;;3.20;;
1178;SDS011;578;48.408;10.004;2022-08-01T15:58:54;4.67;;;3.87;;
1178;SDS011;578;48.408;10.004;2022-08-01T16:01:23;5.40;;;4.53;;
1178;SDS011;578;48.408;10.004;2022-08-01T16:03:50;4.83;;;4.40;;
1178;SDS011;578;48.408;10.004;2022-08-01T16:06:17;6.50;;;4.67;;
1178;SDS011;578;48.408;10.004;2022-08-01T16:08:44;6.00;;;4.40;;
1178;SDS011;578;48.408;10.004;2022-08-01T16:11:11;4.80;;;4.30;;
1178;SDS011;578;48.408;10.004;2022-08-01T16:13:38;9.00;;;4.90;;
1178;SDS011;578;48.408;10.004;2022-08-01T16:16:06;4.97;;;4.50;;
1178;SDS011;578;48.408;10.004;2022-08-01T16:18:34;6.40;;;4.73;;
1178;SDS011;578;48.408;10.004;2022-08-01T16:21:01;6.03;;;4.37;;
1178;SDS011;578;48.408;10.004;2022-08-01T16:23:28;6.43;;;4.57;;
1178;SDS011;578;48.408;10.004;2022-08-01T16:25:55;5.37;;;4.17;;
1178;SDS011;578;48.408;10.004;2022-08-01T16:28:22;5.33;;;3.87;;
1178;SDS011;578;48.408;10.004;2022-08-01T16:30:48;7.20;;;4.70;;
1178;SDS011;578;48.408;10.004;2022-08-01T16:33:15;4.37;;;4.07;;
1178;SDS011;578;48.408;10.004;2022-08-01T16:35:43;4.40;;;4.00;;
1178;SDS011;578;48.408;10.004;2022-08-01T16:38:11;6.30;;;4.23;;
1178;SDS011;578;48.408;10.004;2022-08-01T16:40:37;5.20;;;3.83;;
1178;SDS011;578;48.408;10.004;2022-08-01T16:43:04;4.10;;;3.70;;
1178;SDS011;578;48.408;10.004;2022-08-01T16:45:31;5.33;;;4.37;;
1178;SDS011;578;48.408;10.004;2022-08-01T16:47:58;8.63;;;4.73;;
1178;SDS011;578;48.408;10.004;2022-08-01T16:50:24;5.30;;;4.20;;
1178;SDS011;578;48.408;10.004;2022-08-01T16:52:52;6.40;;;4.40;;
1178;SDS011;578;48.408;10.004;2022-08-01T16:55:19;5.03;;;4.20;;
1178;SDS011;578;48.408;10.004;2022-08-01T16:57:47;4.50;;;3.87;;
1178;SDS011;578;48.408;10.004;2022-08-01T17:00:16;3.83;;;3.20;;
1178;SDS011;578;48.408;10.004;2022-08-01T17:02:44;6.80;;;4.20;;
1178;SDS011;578;48.408;10.004;2022-08-01T17:05:11;5.63;;;4.20;;
1178;SDS011;578;48.408;10.004;2022-08-01T17:07:38;8.37;;;4.53;;
1178;SDS011;578;48.408;10.004;2022-08-01T17:10:07;4.97;;;4.50;;
1178;SDS011;578;48.408;10.004;2022-08-01T17:12:35;4.87;;;4.47;;
1178;SDS011;578;48.408;10.004;2022-08-01T17:15:03;4.33;;;3.70;;
1178;SDS011;578;48.408;10.004;2022-08-01T17:17:31;4.10;;;3.67;;
1178;SDS011;578;48.408;10.004;2022-08-01T17:19:58;5.10;;;4.00;;
1178;SDS011;578;48.408;10.004;2022-08-01T17:22:24;4.77;;;3.67;;
1178;SDS011;578;48.408;10.004;2022-08-01T17:24:51;3.80;;;3.40;;
1178;SDS011;578;48.408;10.004;2022-08-01T17:27:19;3.70;;;3.40;;
1178;SDS011;578;48.408;10.004;2022-08-01T17:29:46;4.43;;;3.50;;
1178;SDS011;578;48.408;10.004;2022-08-01T17:32:22;4.20;;;3.80;;
1178;SDS011;578;48.408;10.004;2022-08-01T17:34:49;4.20;;;3.30;;